createdAt,value
2019-01-25T00:00:25.266Z,-0.86
2019-01-25T00:01:25.247Z,-0.92
2019-01-25T00:02:25.230Z,-1.02
2019-01-25T00:03:25.196Z,-0.99
2019-01-25T00:04:25.187Z,-1.01
2019-01-25T00:05:25.148Z,-1.07
2019-01-25T00:06:25.139Z,-1.02
2019-01-25T00:07:25.106Z,-0.91
2019-01-25T00:08:25.074Z,-0.95
2019-01-25T00:09:25.093Z,-1.04
2019-01-25T00:10:25.024Z,-0.99
2019-01-25T00:11:25.000Z,-0.99
2019-01-25T00:12:25.910Z,-0.97
2019-01-25T00:13:24.946Z,-1.01
2019-01-25T00:14:24.928Z,-0.95
2019-01-25T00:15:24.913Z,-0.97
2019-01-25T00:16:24.892Z,-0.99
2019-01-25T00:17:25.404Z,-1.04
2019-01-25T00:18:24.828Z,-1.02
2019-01-25T00:19:24.833Z,-0.99
2019-01-25T00:20:24.776Z,-0.99
2019-01-25T00:21:24.752Z,-1.05
2019-01-25T00:22:24.734Z,-1.05
2019-01-25T00:23:24.699Z,-1.01
2019-01-25T00:24:24.694Z,-1.05
2019-01-25T00:25:24.654Z,-0.97
2019-01-25T00:26:24.646Z,-0.95
2019-01-25T00:27:24.606Z,-0.99
2019-01-25T00:28:24.578Z,-1.01
2019-01-25T00:29:24.555Z,-1.01
2019-01-25T00:30:24.533Z,-1.07
2019-01-25T00:31:24.533Z,-1.01
2019-01-25T00:32:24.481Z,-1.02
2019-01-25T00:33:24.455Z,-1.05
2019-01-25T00:34:24.440Z,-1.15
2019-01-25T00:35:24.409Z,-1.04
2019-01-25T00:36:24.478Z,-1.04
2019-01-25T00:37:24.376Z,-1.09
2019-01-25T00:38:24.333Z,-1.04
2019-01-25T00:39:24.310Z,-0.99
2019-01-25T00:40:24.285Z,-1.05
2019-01-25T00:41:24.278Z,-0.97
2019-01-25T00:42:24.231Z,-1.01
2019-01-25T00:43:24.213Z,-1.04
2019-01-25T00:44:24.187Z,-1.04
2019-01-25T00:45:24.177Z,-0.99
2019-01-25T00:46:24.155Z,-1.01
2019-01-25T00:47:24.112Z,-0.86
2019-01-25T00:48:24.088Z,-0.99
2019-01-25T00:49:24.061Z,-0.99
2019-01-25T00:50:24.047Z,-0.98
2019-01-25T00:51:24.028Z,-1.04
2019-01-25T00:52:24.012Z,-0.94
2019-01-25T00:53:23.962Z,-0.95
2019-01-25T00:54:23.944Z,-0.86
2019-01-25T00:55:23.917Z,-0.91
2019-01-25T00:56:23.890Z,-0.92
2019-01-25T00:57:23.865Z,-0.92
2019-01-25T00:58:23.862Z,-0.94
2019-01-25T00:59:23.817Z,-1.01
2019-01-25T01:00:23.795Z,-0.98
2019-01-25T01:01:23.770Z,-1.02
2019-01-25T01:02:23.766Z,-0.86
2019-01-25T01:03:23.717Z,-0.92
2019-01-25T01:04:23.695Z,-0.83
2019-01-25T01:05:23.674Z,-0.95
2019-01-25T01:06:23.646Z,-0.92
2019-01-25T01:07:23.619Z,-0.94
2019-01-25T01:08:23.615Z,-0.82
2019-01-25T01:09:23.569Z,-0.94
2019-01-25T01:10:23.553Z,-0.95
2019-01-25T01:11:23.524Z,-0.95
2019-01-25T01:12:23.500Z,-0.91
2019-01-25T01:13:23.477Z,-0.92
2019-01-25T01:14:23.469Z,-0.86
2019-01-25T01:15:23.452Z,-1.02
2019-01-25T01:16:23.400Z,-0.91
2019-01-25T01:17:23.378Z,-0.97
2019-01-25T01:18:23.349Z,-0.94
2019-01-25T01:19:23.325Z,-0.91
2019-01-25T01:20:23.321Z,-0.89
2019-01-25T01:21:23.279Z,-0.86
2019-01-25T01:22:23.255Z,-0.86
2019-01-25T01:23:23.231Z,-0.92
2019-01-25T01:24:23.202Z,-1.02
2019-01-25T01:25:23.187Z,-0.95
2019-01-25T01:26:23.163Z,-0.99
2019-01-25T01:27:23.129Z,-1.04
2019-01-25T01:28:23.109Z,-0.86
2019-01-25T01:29:23.097Z,-0.99
2019-01-25T01:30:23.075Z,-0.94
2019-01-25T01:31:23.047Z,-0.92
2019-01-25T01:32:23.023Z,-1.02
2019-01-25T01:33:22.980Z,-0.95
2019-01-25T01:34:22.954Z,-1.02
2019-01-25T01:35:22.933Z,-0.94
2019-01-25T01:36:22.911Z,-0.89
2019-01-25T01:37:22.882Z,-1.02
2019-01-25T01:38:22.883Z,-0.86
2019-01-25T01:39:22.834Z,-0.92
2019-01-25T01:40:22.814Z,-0.97
2019-01-25T01:41:22.782Z,-0.91
2019-01-25T01:42:22.756Z,-0.91
2019-01-25T01:43:22.752Z,-0.92
2019-01-25T01:44:22.712Z,-0.86
2019-01-25T01:45:22.686Z,-0.95
2019-01-25T01:46:22.660Z,-1.01
2019-01-25T01:47:22.654Z,-0.86
2019-01-25T01:48:22.612Z,-0.89
2019-01-25T01:49:22.587Z,-0.89
2019-01-25T01:50:22.565Z,-0.92
2019-01-25T01:51:22.537Z,-0.91
2019-01-25T01:52:22.519Z,-0.95
2019-01-25T01:53:22.503Z,-0.91
2019-01-25T01:54:22.470Z,-0.94
2019-01-25T01:55:24.410Z,-0.97
2019-01-25T01:56:22.412Z,-0.89
2019-01-25T01:57:22.938Z,-0.97
2019-01-25T01:58:22.364Z,-0.97
2019-01-25T01:59:22.356Z,-0.97
2019-01-25T02:00:22.908Z,-0.86
2019-01-25T02:01:22.305Z,-0.86
2019-01-25T02:02:22.266Z,-0.86
2019-01-25T02:03:22.239Z,-0.85
2019-01-25T02:04:22.218Z,-0.91
2019-01-25T02:05:22.198Z,-0.91
2019-01-25T02:06:22.166Z,-1.01
2019-01-25T02:07:22.160Z,-0.86
2019-01-25T02:08:22.117Z,-0.94
2019-01-25T02:09:22.091Z,-0.98
2019-01-25T02:10:29.020Z,-0.95
2019-01-25T02:11:22.039Z,-0.89
2019-01-25T02:12:22.019Z,-0.97
2019-01-25T02:13:22.019Z,-0.92
2019-01-25T02:14:21.966Z,-1.05
2019-01-25T02:15:21.945Z,-0.89
2019-01-25T02:16:21.923Z,-0.86
2019-01-25T02:17:21.897Z,-0.94
2019-01-25T02:18:21.870Z,-0.92
2019-01-25T02:19:21.865Z,-0.95
2019-01-25T02:20:21.822Z,-0.94
2019-01-25T02:21:21.795Z,-0.91
2019-01-25T02:22:21.773Z,-0.92
2019-01-25T02:23:21.769Z,-0.98
2019-01-25T02:24:21.722Z,-1.04
2019-01-25T02:25:21.700Z,-1.10
2019-01-25T02:26:22.440Z,-1.01
2019-01-25T02:27:21.703Z,-1.05
2019-01-25T02:28:21.629Z,-0.98
2019-01-25T02:29:21.613Z,-1.05
2019-01-25T02:30:21.581Z,-1.02
2019-01-25T02:31:21.569Z,-0.92
2019-01-25T02:32:21.527Z,-0.95
2019-01-25T02:33:21.500Z,-0.94
2019-01-25T02:34:21.503Z,-0.82
2019-01-25T02:35:21.466Z,-0.91
2019-01-25T02:36:21.442Z,-0.98
2019-01-25T02:37:21.401Z,-0.91
2019-01-25T02:38:21.379Z,-0.94
2019-01-25T02:39:21.351Z,-0.86
2019-01-25T02:40:21.328Z,-0.86
2019-01-25T02:41:21.324Z,-0.92
2019-01-25T02:42:21.278Z,-0.91
2019-01-25T02:43:21.251Z,-1.01
2019-01-25T02:44:21.234Z,-0.85
2019-01-25T02:45:21.203Z,-0.94
2019-01-25T02:46:21.178Z,-0.91
2019-01-25T02:47:21.171Z,-0.94
2019-01-25T02:48:21.128Z,-0.85
2019-01-25T02:49:21.103Z,-0.91
2019-01-25T02:50:21.087Z,-0.91
2019-01-25T02:51:21.063Z,-0.92
2019-01-25T02:52:21.049Z,-0.85
2019-01-25T02:53:21.003Z,-0.86
2019-01-25T02:54:20.980Z,-0.95
2019-01-25T02:55:20.951Z,-0.82
2019-01-25T02:56:20.937Z,-0.85
2019-01-25T02:57:20.932Z,-0.86
2019-01-25T02:58:20.895Z,-0.97
2019-01-25T02:59:20.855Z,-0.95
2019-01-25T03:00:20.829Z,-0.95
2019-01-25T03:01:20.805Z,-0.83
2019-01-25T03:02:20.781Z,-0.83
2019-01-25T03:03:20.751Z,-0.85
2019-01-25T03:04:20.766Z,-0.83
2019-01-25T03:05:20.704Z,-0.92
2019-01-25T03:06:20.680Z,-0.97
2019-01-25T03:07:20.657Z,-0.91
2019-01-25T03:08:20.630Z,-0.83
2019-01-25T03:09:20.608Z,-0.91
2019-01-25T03:10:28.185Z,-0.91
2019-01-25T03:11:20.559Z,-0.89
2019-01-25T03:12:20.542Z,-0.89
2019-01-25T03:13:20.511Z,-0.91
2019-01-25T03:14:20.503Z,-0.82
2019-01-25T03:15:20.463Z,-0.89
2019-01-25T03:16:20.433Z,-0.95
2019-01-25T03:17:20.428Z,-0.94
2019-01-25T03:18:20.388Z,-0.91
2019-01-25T03:19:20.358Z,-0.85
2019-01-25T03:20:20.333Z,-0.91
2019-01-25T03:21:20.336Z,-0.95
2019-01-25T03:22:20.286Z,-0.80
2019-01-25T03:23:20.259Z,-0.82
2019-01-25T03:24:20.234Z,-0.86
2019-01-25T03:25:20.210Z,-0.86
2019-01-25T03:26:20.183Z,-0.95
2019-01-25T03:27:20.176Z,-0.89
2019-01-25T03:28:20.132Z,-0.85
2019-01-25T03:29:20.107Z,-0.80
2019-01-25T03:30:20.086Z,-0.79
2019-01-25T03:31:20.061Z,-0.86
2019-01-25T03:32:20.059Z,-0.83
2019-01-25T03:33:20.038Z,-0.82
2019-01-25T03:34:20.000Z,-0.82
2019-01-25T03:35:19.965Z,-0.95
2019-01-25T03:36:19.940Z,-0.80
2019-01-25T03:37:19.915Z,-0.86
2019-01-25T03:38:19.907Z,-0.85
2019-01-25T03:39:19.863Z,-0.92
2019-01-25T03:40:19.836Z,-0.91
2019-01-25T03:41:20.412Z,-0.79
2019-01-25T03:42:19.793Z,-0.82
2019-01-25T03:43:19.784Z,-0.76
2019-01-25T03:44:19.746Z,-0.75
2019-01-25T03:45:19.717Z,-0.80
2019-01-25T03:46:19.695Z,-0.75
2019-01-25T03:47:19.669Z,-0.75
2019-01-25T03:48:19.663Z,-0.75
2019-01-25T03:49:19.620Z,-0.75
2019-01-25T03:50:19.596Z,-0.79
2019-01-25T03:51:19.580Z,-0.73
2019-01-25T03:52:19.550Z,-0.72
2019-01-25T03:53:19.542Z,-0.75
2019-01-25T03:54:19.499Z,-0.67
2019-01-25T03:55:19.474Z,-0.64
2019-01-25T03:56:19.467Z,-0.75
2019-01-25T03:57:19.423Z,-0.72
2019-01-25T03:58:19.412Z,-0.82
2019-01-25T03:59:19.374Z,-0.75
2019-01-25T04:00:19.346Z,-0.73
2019-01-25T04:01:19.339Z,-0.73
2019-01-25T04:02:19.302Z,-0.67
2019-01-25T04:03:19.282Z,-0.72
2019-01-25T04:04:19.253Z,-0.70
2019-01-25T04:05:19.231Z,-0.67
2019-01-25T04:06:19.225Z,-0.72
2019-01-25T04:07:19.182Z,-0.69
2019-01-25T04:08:19.155Z,-0.79
2019-01-25T04:09:19.133Z,-0.76
2019-01-25T04:10:19.100Z,-0.75
2019-01-25T04:11:19.081Z,-0.75
2019-01-25T04:12:19.072Z,-0.78
2019-01-25T04:13:19.036Z,-0.73
2019-01-25T04:14:19.009Z,-0.75
2019-01-25T04:15:19.912Z,-0.72
2019-01-25T04:16:18.957Z,-0.73
2019-01-25T04:17:18.949Z,-0.72
2019-01-25T04:18:18.923Z,-0.75
2019-01-25T04:19:18.885Z,-0.75
2019-01-25T04:20:19.425Z,-0.78
2019-01-25T04:21:18.837Z,-0.73
2019-01-25T04:22:18.843Z,-0.75
2019-01-25T04:23:18.784Z,-0.79
2019-01-25T04:24:18.763Z,-0.76
2019-01-25T04:25:18.739Z,-0.70
2019-01-25T04:26:18.717Z,-0.73
2019-01-25T04:27:18.691Z,-0.67
2019-01-25T04:28:18.685Z,-0.70
2019-01-25T04:29:18.637Z,-0.65
2019-01-25T04:30:18.615Z,-0.60
2019-01-25T04:31:18.588Z,-0.70
2019-01-25T04:32:18.564Z,-0.65
2019-01-25T04:33:18.547Z,-0.67
2019-01-25T04:34:18.535Z,-0.69
2019-01-25T04:35:18.490Z,-0.70
2019-01-25T04:36:18.471Z,-0.70
2019-01-25T04:37:18.441Z,-0.55
2019-01-25T04:38:18.425Z,-0.70
2019-01-25T04:39:18.412Z,-0.70
2019-01-25T04:40:18.368Z,-0.72
2019-01-25T04:41:18.369Z,-0.69
2019-01-25T04:42:18.331Z,-0.64
2019-01-25T04:43:18.312Z,-0.64
2019-01-25T04:44:18.273Z,-0.65
2019-01-25T04:45:18.248Z,-0.67
2019-01-25T04:46:18.227Z,-0.69
2019-01-25T04:47:18.202Z,-0.67
2019-01-25T04:48:18.195Z,-0.58
2019-01-25T04:49:18.152Z,-0.69
2019-01-25T04:50:19.274Z,-0.65
2019-01-25T04:51:18.123Z,-0.57
2019-01-25T04:52:18.084Z,-0.65
2019-01-25T04:53:18.065Z,-0.65
2019-01-25T04:54:18.047Z,-0.61
2019-01-25T04:55:18.022Z,-0.64
2019-01-25T04:56:18.020Z,-0.61
2019-01-25T04:57:17.954Z,-0.58
2019-01-25T04:58:17.933Z,-0.64
2019-01-25T04:59:17.910Z,-0.55
2019-01-25T05:00:17.884Z,-0.64
2019-01-25T05:01:17.872Z,-0.61
2019-01-25T05:02:17.854Z,-0.60
2019-01-25T05:03:17.811Z,-0.58
2019-01-25T05:04:17.787Z,-0.64
2019-01-25T05:05:17.765Z,-0.60
2019-01-25T05:06:18.444Z,-0.64
2019-01-25T05:07:17.732Z,-0.57
2019-01-25T05:08:17.710Z,-0.65
2019-01-25T05:09:17.666Z,-0.57
2019-01-25T05:10:17.643Z,-0.58
2019-01-25T05:11:20.051Z,-0.57
2019-01-25T05:12:17.591Z,-0.55
2019-01-25T05:13:17.582Z,-0.54
2019-01-25T05:14:17.565Z,-0.46
2019-01-25T05:15:17.522Z,-0.51
2019-01-25T05:16:17.500Z,-0.60
2019-01-25T05:17:19.415Z,-0.64
2019-01-25T05:18:17.461Z,-0.60
2019-01-25T05:19:17.435Z,-0.60
2019-01-25T05:20:17.398Z,-0.67
2019-01-25T05:21:17.377Z,-0.62
2019-01-25T05:22:17.355Z,-0.62
2019-01-25T05:23:17.335Z,-0.60
2019-01-25T05:24:17.316Z,-0.57
2019-01-25T05:25:17.274Z,-0.46
2019-01-25T05:26:17.253Z,-0.58
2019-01-25T05:27:17.228Z,-0.58
2019-01-25T05:28:17.200Z,-0.61
2019-01-25T05:29:17.202Z,-0.58
2019-01-25T05:30:17.154Z,-0.58
2019-01-25T05:31:17.128Z,-0.57
2019-01-25T05:32:17.125Z,-0.55
2019-01-25T05:33:17.918Z,-0.65
2019-01-25T05:34:17.055Z,-0.61
2019-01-25T05:35:17.043Z,-0.61
2019-01-25T05:36:17.019Z,-0.58
2019-01-25T05:37:16.982Z,-0.64
2019-01-25T05:38:16.956Z,-0.60
2019-01-25T05:39:16.933Z,-0.64
2019-01-25T05:40:16.905Z,-0.65
2019-01-25T05:41:16.911Z,-0.55
2019-01-25T05:42:16.858Z,-0.62
2019-01-25T05:43:16.833Z,-0.65
2019-01-25T05:44:16.807Z,-0.60
2019-01-25T05:45:16.786Z,-0.67
2019-01-25T05:46:16.759Z,-0.58
2019-01-25T05:47:16.756Z,-0.60
2019-01-25T05:48:16.711Z,-0.64
2019-01-25T05:49:16.680Z,-0.64
2019-01-25T05:50:16.676Z,-0.61
2019-01-25T05:51:16.635Z,-0.61
2019-01-25T05:52:16.630Z,-0.62
2019-01-25T05:53:16.590Z,-0.61
2019-01-25T05:54:16.562Z,-0.58
2019-01-25T05:55:16.536Z,-0.58
2019-01-25T05:56:16.546Z,-0.61
2019-01-25T05:57:16.492Z,-0.61
2019-01-25T05:58:16.480Z,-0.64
2019-01-25T05:59:16.441Z,-0.67
2019-01-25T06:00:16.419Z,-0.60
2019-01-25T06:01:16.392Z,-0.70
2019-01-25T06:02:16.383Z,-0.62
2019-01-25T06:03:16.377Z,-0.61
2019-01-25T06:04:16.319Z,-0.64
2019-01-25T06:05:16.296Z,-0.58
2019-01-25T06:06:16.266Z,-0.58
2019-01-25T06:07:16.243Z,-0.57
2019-01-25T06:08:16.233Z,-0.62
2019-01-25T06:09:16.190Z,-0.61
2019-01-25T06:10:16.171Z,-0.60
2019-01-25T06:11:16.145Z,-0.62
2019-01-25T06:12:16.120Z,-0.67
2019-01-25T06:13:16.170Z,-0.60
2019-01-25T06:14:16.073Z,-0.62
2019-01-25T06:15:16.056Z,-0.61
2019-01-25T06:16:16.021Z,-0.64
2019-01-25T06:17:15.997Z,-0.69
2019-01-25T06:18:15.974Z,-0.58
2019-01-25T06:19:15.974Z,-0.55
2019-01-25T06:20:15.922Z,-0.60
2019-01-25T06:21:15.901Z,-0.54
2019-01-25T06:22:15.885Z,-0.47
2019-01-25T06:23:15.855Z,-0.55
2019-01-25T06:24:15.849Z,-0.55
2019-01-25T06:25:15.807Z,-0.54
2019-01-25T06:26:15.781Z,-0.47
2019-01-25T06:27:15.753Z,-0.51
2019-01-25T06:28:15.729Z,-0.46
2019-01-25T06:29:15.709Z,-0.42
2019-01-25T06:30:16.861Z,-0.51
2019-01-25T06:31:15.670Z,-0.51
2019-01-25T06:32:15.636Z,-0.47
2019-01-25T06:33:15.609Z,-0.47
2019-01-25T06:34:15.601Z,-0.55
2019-01-25T06:35:15.561Z,-0.47
2019-01-25T06:36:15.559Z,-0.47
2019-01-25T06:37:15.528Z,-0.44
2019-01-25T06:38:15.488Z,-0.47
2019-01-25T06:39:15.461Z,-0.42
2019-01-25T06:40:15.437Z,-0.47
2019-01-25T06:41:15.411Z,-0.46
2019-01-25T06:42:15.419Z,-0.43
2019-01-25T06:43:15.363Z,-0.44
2019-01-25T06:44:15.339Z,-0.46
2019-01-25T06:45:15.329Z,-0.46
2019-01-25T06:46:15.288Z,-0.44
2019-01-25T06:47:15.278Z,-0.42
2019-01-25T06:48:15.261Z,-0.54
2019-01-25T06:49:15.216Z,-0.49
2019-01-25T06:50:15.189Z,-0.46
2019-01-25T06:51:15.167Z,-0.46
2019-01-25T06:52:15.163Z,-0.52
2019-01-25T06:53:15.115Z,-0.47
2019-01-25T06:54:15.126Z,-0.43
2019-01-25T06:55:15.067Z,-0.49
2019-01-25T06:56:15.089Z,-0.43
2019-01-25T06:57:15.025Z,-0.47
2019-01-25T06:58:15.017Z,-0.40
2019-01-25T06:59:14.971Z,-0.46
2019-01-25T07:00:14.953Z,-0.44
2019-01-25T07:01:14.924Z,-0.39
2019-01-25T07:02:14.897Z,-0.51
2019-01-25T07:03:14.893Z,-0.44
2019-01-25T07:04:14.846Z,-0.37
2019-01-25T07:05:14.873Z,-0.36
2019-01-25T07:06:14.818Z,-0.25
2019-01-25T07:07:14.776Z,-0.34
2019-01-25T07:08:14.770Z,-0.36
2019-01-25T07:09:14.740Z,-0.39
2019-01-25T07:10:14.701Z,-0.36
2019-01-25T07:11:14.701Z,-0.34
2019-01-25T07:12:14.650Z,-0.39
2019-01-25T07:13:14.630Z,-0.37
2019-01-25T07:14:14.635Z,-0.36
2019-01-25T07:15:14.658Z,-0.39
2019-01-25T07:16:14.650Z,-0.42
2019-01-25T07:17:14.664Z,-0.36
2019-01-25T07:18:15.454Z,-0.29
2019-01-25T07:19:15.492Z,-0.25
2019-01-25T07:20:14.659Z,-0.34
2019-01-25T07:21:14.435Z,-0.39
2019-01-25T07:22:14.441Z,-0.31
2019-01-25T07:23:14.387Z,-0.29
2019-01-25T07:24:14.360Z,-0.39
2019-01-25T07:25:14.338Z,-0.28
2019-01-25T07:26:14.332Z,-0.26
2019-01-25T07:27:14.287Z,-0.34
2019-01-25T07:28:14.281Z,-0.26
2019-01-25T07:29:14.308Z,-0.25
2019-01-25T07:30:14.214Z,-0.31
2019-01-25T07:31:14.188Z,-0.23
2019-01-25T07:32:14.167Z,-0.31
2019-01-25T07:33:14.175Z,-0.28
2019-01-25T07:34:14.121Z,-0.23
2019-01-25T07:35:14.099Z,-0.21
2019-01-25T07:36:14.077Z,-0.21
2019-01-25T07:37:14.090Z,-0.23
2019-01-25T07:38:15.001Z,-0.21
2019-01-25T07:39:14.013Z,-0.19
2019-01-25T07:40:14.929Z,-0.26
2019-01-25T07:41:13.962Z,-0.16
2019-01-25T07:42:13.937Z,-0.16
2019-01-25T07:43:13.913Z,-0.23
2019-01-25T07:44:13.893Z,-0.15
2019-01-25T07:45:13.850Z,-0.10
2019-01-25T07:46:13.828Z,-0.08
2019-01-25T07:47:13.833Z,-0.07
2019-01-25T07:48:13.793Z,-0.16
2019-01-25T07:49:13.802Z,-0.10
2019-01-25T07:50:13.747Z,-0.21
2019-01-25T07:51:13.720Z,-0.21
2019-01-25T07:52:13.682Z,-0.22
2019-01-25T07:53:13.654Z,-0.16
2019-01-25T07:54:13.644Z,-0.18
2019-01-25T07:55:13.613Z,-0.15
2019-01-25T07:56:13.587Z,-0.16
2019-01-25T07:57:13.564Z,-0.07
2019-01-25T07:58:13.529Z,-0.05
2019-01-25T07:59:13.532Z,-0.08
2019-01-25T08:00:13.520Z,-0.08
2019-01-25T08:01:13.525Z,-0.15
2019-01-25T08:02:13.437Z,-0.08
2019-01-25T08:03:13.421Z,-0.08
2019-01-25T08:04:13.397Z,-0.08
2019-01-25T08:05:13.362Z,-0.04
2019-01-25T08:06:13.340Z,-0.08
2019-01-25T08:07:13.332Z,-0.04
2019-01-25T08:08:13.290Z,-0.05
2019-01-25T08:09:13.280Z,-0.03
2019-01-25T08:10:13.245Z,-0.04
2019-01-25T08:11:13.212Z,0.02
2019-01-25T08:12:13.192Z,0.03
2019-01-25T08:13:13.191Z,0.03
2019-01-25T08:14:13.210Z,0.11
2019-01-25T08:15:13.126Z,0.10
2019-01-25T08:16:13.094Z,0.02
2019-01-25T08:17:13.075Z,0.04
2019-01-25T08:18:13.074Z,0.04
2019-01-25T08:19:13.023Z,0.00
2019-01-25T08:20:12.997Z,0.03
2019-01-25T08:21:12.969Z,0.08
2019-01-25T08:22:12.979Z,0.14
2019-01-25T08:23:12.944Z,0.15
2019-01-25T08:24:12.907Z,0.11
2019-01-25T08:25:12.873Z,0.13
2019-01-25T08:26:12.859Z,0.26
2019-01-25T08:27:12.828Z,0.11
2019-01-25T08:28:12.823Z,0.14
2019-01-25T08:29:12.777Z,0.20
2019-01-25T08:30:12.757Z,0.17
2019-01-25T08:31:12.745Z,0.18
2019-01-25T08:32:12.710Z,0.17
2019-01-25T08:33:12.735Z,0.13
2019-01-25T08:34:12.689Z,0.18
2019-01-25T08:35:12.708Z,0.26
2019-01-25T08:36:12.626Z,0.29
2019-01-25T08:37:12.589Z,0.38
2019-01-25T08:38:12.559Z,0.33
2019-01-25T08:39:12.600Z,0.32
2019-01-25T08:40:12.525Z,0.35
2019-01-25T08:41:12.501Z,0.35
2019-01-25T08:42:15.703Z,0.20
2019-01-25T08:43:12.449Z,0.13
2019-01-25T08:44:12.461Z,0.15
2019-01-25T08:45:12.388Z,0.28
2019-01-25T08:46:12.393Z,0.33
2019-01-25T08:47:12.361Z,0.35
2019-01-25T08:48:12.336Z,0.36
2019-01-25T08:49:12.295Z,0.33
2019-01-25T08:50:12.267Z,0.41
2019-01-25T08:51:12.293Z,0.33
2019-01-25T08:52:12.261Z,0.38
2019-01-25T08:53:12.257Z,0.35
2019-01-25T08:54:14.173Z,0.38
2019-01-25T08:55:12.166Z,0.39
2019-01-25T08:56:12.151Z,0.46
2019-01-25T08:57:12.140Z,0.49
2019-01-25T08:58:12.078Z,0.49
2019-01-25T08:59:12.065Z,0.49
2019-01-25T09:00:12.030Z,0.47
2019-01-25T09:01:12.026Z,0.51
2019-01-25T09:02:11.990Z,0.57
2019-01-25T09:03:11.958Z,0.65
2019-01-25T09:04:11.937Z,0.68
2019-01-25T09:05:12.287Z,0.66
2019-01-25T09:06:11.887Z,0.68
2019-01-25T09:07:11.876Z,0.70
2019-01-25T09:08:11.850Z,0.68
2019-01-25T09:09:11.825Z,0.62
2019-01-25T09:10:12.496Z,0.69
2019-01-25T09:11:11.768Z,0.76
2019-01-25T09:12:11.740Z,0.78
2019-01-25T09:13:11.733Z,0.78
2019-01-25T09:14:11.709Z,0.86
2019-01-25T09:15:11.667Z,0.76
2019-01-25T09:16:11.663Z,0.86
2019-01-25T09:17:11.619Z,0.91
2019-01-25T09:18:11.594Z,0.87
2019-01-25T09:19:11.590Z,0.76
2019-01-25T09:20:14.615Z,0.84
2019-01-25T09:21:11.543Z,0.78
2019-01-25T09:22:11.519Z,0.76
2019-01-25T09:23:11.479Z,0.72
2019-01-25T09:24:11.454Z,0.73
2019-01-25T09:25:11.439Z,0.76
2019-01-25T09:26:11.424Z,0.79
2019-01-25T09:27:11.385Z,0.86
2019-01-25T09:28:11.372Z,0.84
2019-01-25T09:29:11.355Z,0.79
2019-01-25T09:30:11.311Z,0.75
2019-01-25T09:31:11.301Z,0.73
2019-01-25T09:32:11.257Z,0.75
2019-01-25T09:33:11.241Z,0.83
2019-01-25T09:34:11.230Z,0.84
2019-01-25T09:35:11.192Z,0.86
2019-01-25T09:36:11.164Z,0.76
2019-01-25T09:37:11.142Z,0.84
2019-01-25T09:38:11.117Z,0.78
2019-01-25T09:39:11.101Z,0.79
2019-01-25T09:40:11.087Z,0.88
2019-01-25T09:41:11.057Z,0.83
2019-01-25T09:42:11.027Z,0.91
2019-01-25T09:43:11.005Z,0.93
2019-01-25T09:44:10.981Z,0.93
2019-01-25T09:45:10.956Z,0.93
2019-01-25T09:46:10.941Z,0.96
2019-01-25T09:47:10.904Z,0.97
2019-01-25T09:48:10.891Z,0.96
2019-01-25T09:49:10.869Z,1.04
2019-01-25T09:50:10.855Z,1.12
2019-01-25T09:51:10.827Z,1.04
2019-01-25T09:52:10.783Z,1.08
2019-01-25T09:53:10.762Z,1.08
2019-01-25T09:54:10.736Z,1.15
2019-01-25T09:55:10.718Z,1.20
2019-01-25T09:56:10.690Z,1.18
2019-01-25T09:57:10.682Z,1.20
2019-01-25T09:58:10.637Z,1.12
2019-01-25T09:59:10.618Z,1.16
2019-01-25T10:00:10.596Z,1.22
2019-01-25T10:01:10.571Z,1.16
2019-01-25T10:02:10.564Z,1.20
2019-01-25T10:03:10.529Z,1.23
2019-01-25T10:04:10.497Z,1.20
2019-01-25T10:05:10.478Z,1.20
2019-01-25T10:06:10.455Z,1.22
2019-01-25T10:07:10.427Z,1.18
2019-01-25T10:08:10.427Z,1.14
2019-01-25T10:09:10.399Z,1.36
2019-01-25T10:10:10.352Z,1.34
2019-01-25T10:11:10.331Z,1.36
2019-01-25T10:12:10.306Z,1.45
2019-01-25T10:13:10.280Z,1.37
2019-01-25T10:14:10.276Z,1.52
2019-01-25T10:15:10.245Z,1.58
2019-01-25T10:16:10.218Z,1.55
2019-01-25T10:17:10.209Z,1.62
2019-01-25T10:18:10.166Z,1.62
2019-01-25T10:19:10.161Z,1.60
2019-01-25T10:20:10.118Z,1.60
2019-01-25T10:21:10.094Z,1.55
2019-01-25T10:22:10.069Z,1.58
2019-01-25T10:23:10.051Z,1.59
2019-01-25T10:24:10.020Z,1.65
2019-01-25T10:25:10.011Z,1.60
2019-01-25T10:26:09.990Z,1.65
2019-01-25T10:27:09.966Z,1.70
2019-01-25T10:28:09.943Z,1.59
2019-01-25T10:29:09.906Z,1.70
2019-01-25T10:30:09.884Z,1.72
2019-01-25T10:31:09.855Z,1.70
2019-01-25T10:32:09.857Z,1.63
2019-01-25T10:33:09.808Z,1.66
2019-01-25T10:34:09.791Z,1.72
2019-01-25T10:35:09.766Z,1.70
2019-01-25T10:36:09.740Z,1.84
2019-01-25T10:37:09.728Z,1.69
2019-01-25T10:38:09.697Z,1.81
2019-01-25T10:39:09.666Z,1.81
2019-01-25T10:40:09.651Z,1.87
2019-01-25T10:41:09.625Z,1.87
2019-01-25T10:42:09.620Z,1.84
2019-01-25T10:43:09.575Z,1.87
2019-01-25T10:44:09.552Z,2.02
2019-01-25T10:45:09.536Z,2.05
2019-01-25T10:46:09.508Z,1.99
2019-01-25T10:47:09.485Z,2.02
2019-01-25T10:48:09.477Z,2.10
2019-01-25T10:49:09.433Z,2.05
2019-01-25T10:50:09.405Z,2.07
2019-01-25T10:51:09.382Z,2.05
2019-01-25T10:52:09.366Z,2.07
2019-01-25T10:53:09.341Z,2.09
2019-01-25T10:54:09.346Z,2.07
2019-01-25T10:55:09.290Z,2.00
2019-01-25T10:56:09.269Z,2.09
2019-01-25T10:57:09.256Z,2.02
2019-01-25T10:58:09.239Z,2.09
2019-01-25T10:59:09.197Z,2.12
2019-01-25T11:00:09.181Z,2.02
2019-01-25T11:01:09.155Z,2.07
2019-01-25T11:02:09.133Z,2.00
2019-01-25T11:03:09.122Z,2.10
2019-01-25T11:04:11.552Z,2.14
2019-01-25T11:05:09.052Z,2.18
2019-01-25T11:06:09.033Z,2.14
2019-01-25T11:07:09.007Z,2.10
2019-01-25T11:08:08.992Z,2.10
2019-01-25T11:09:08.978Z,2.09
2019-01-25T11:10:08.938Z,2.12
2019-01-25T11:11:08.945Z,2.23
2019-01-25T11:12:08.895Z,2.20
2019-01-25T11:13:08.866Z,2.20
2019-01-25T11:14:08.853Z,2.24
2019-01-25T11:15:08.819Z,2.20
2019-01-25T11:16:11.945Z,2.23
2019-01-25T11:17:08.789Z,2.31
2019-01-25T11:18:08.744Z,2.34
2019-01-25T11:19:08.733Z,2.28
2019-01-25T11:20:08.719Z,2.42
2019-01-25T11:21:08.696Z,2.36
2019-01-25T11:22:08.656Z,2.46
2019-01-25T11:23:08.633Z,2.46
2019-01-25T11:24:08.607Z,2.48
2019-01-25T11:25:08.587Z,2.48
2019-01-25T11:26:08.586Z,2.45
2019-01-25T11:27:08.556Z,2.45
2019-01-25T11:28:08.513Z,2.46
2019-01-25T11:29:08.502Z,2.49
2019-01-25T11:30:08.470Z,2.43
2019-01-25T11:31:08.478Z,2.46
2019-01-25T11:32:08.425Z,2.48
2019-01-25T11:33:08.397Z,2.42
2019-01-25T11:34:08.411Z,2.45
2019-01-25T11:35:08.345Z,2.34
2019-01-25T11:36:08.334Z,2.28
2019-01-25T11:37:08.339Z,2.41
2019-01-25T11:38:08.282Z,2.52
2019-01-25T11:39:08.267Z,2.45
2019-01-25T11:40:08.232Z,2.53
2019-01-25T11:41:08.215Z,2.45
2019-01-25T11:42:08.199Z,2.53
2019-01-25T11:43:09.185Z,2.66
2019-01-25T11:44:08.146Z,2.48
2019-01-25T11:45:08.169Z,2.60
2019-01-25T11:46:08.095Z,2.61
2019-01-25T11:47:08.074Z,2.57
2019-01-25T11:48:08.051Z,2.60
2019-01-25T11:49:08.094Z,2.60
2019-01-25T11:50:08.027Z,2.63
2019-01-25T11:51:07.991Z,2.57
2019-01-25T11:52:07.960Z,2.78
2019-01-25T11:53:07.938Z,2.75
2019-01-25T11:54:07.982Z,2.87
2019-01-25T11:55:07.904Z,2.90
2019-01-25T11:56:07.861Z,3.03
2019-01-25T11:57:07.842Z,3.00
2019-01-25T11:58:07.837Z,3.06
2019-01-25T11:59:07.799Z,2.96
2019-01-25T12:00:07.769Z,3.02
2019-01-25T12:01:07.768Z,2.85
2019-01-25T12:02:07.738Z,2.96
2019-01-25T12:03:07.699Z,3.03
2019-01-25T12:04:07.690Z,3.05
2019-01-25T12:05:07.669Z,3.13
2019-01-25T12:06:07.652Z,3.23
2019-01-25T12:07:07.612Z,3.08
2019-01-25T12:08:07.595Z,3.10
2019-01-25T12:09:07.570Z,3.02
2019-01-25T12:10:07.544Z,3.10
2019-01-25T12:11:07.542Z,3.13
2019-01-25T12:12:07.500Z,3.13
2019-01-25T12:13:07.478Z,3.15
2019-01-25T12:14:07.470Z,3.15
2019-01-25T12:15:07.435Z,3.23
2019-01-25T12:16:07.425Z,3.39
2019-01-25T12:17:07.385Z,3.52
2019-01-25T12:18:07.363Z,3.76
2019-01-25T12:19:07.345Z,3.88
2019-01-25T12:20:07.319Z,3.91
2019-01-25T12:21:07.299Z,3.80
2019-01-25T12:22:07.290Z,3.61
2019-01-25T12:23:07.251Z,3.60
2019-01-25T12:24:07.229Z,3.55
2019-01-25T12:25:07.229Z,3.54
2019-01-25T12:26:07.183Z,3.52
2019-01-25T12:27:07.177Z,3.51
2019-01-25T12:28:07.159Z,3.52
2019-01-25T12:29:07.123Z,3.51
2019-01-25T12:30:07.121Z,3.43
2019-01-25T12:31:07.071Z,3.36
2019-01-25T12:32:07.058Z,3.50
2019-01-25T12:33:07.029Z,3.47
2019-01-25T12:34:07.024Z,3.57
2019-01-25T12:35:07.504Z,3.58
2019-01-25T12:36:06.959Z,3.66
2019-01-25T12:37:06.943Z,3.54
2019-01-25T12:38:06.974Z,3.52
2019-01-25T12:39:06.894Z,3.66
2019-01-25T12:40:06.882Z,3.76
2019-01-25T12:41:06.853Z,3.69
2019-01-25T12:42:06.842Z,3.69
2019-01-25T12:43:06.803Z,3.66
2019-01-25T12:44:06.803Z,3.76
2019-01-25T12:45:06.761Z,3.72
2019-01-25T12:46:06.740Z,3.65
2019-01-25T12:47:06.718Z,3.52
2019-01-25T12:48:06.697Z,3.54
2019-01-25T12:49:06.678Z,3.48
2019-01-25T12:50:06.676Z,3.57
2019-01-25T12:51:06.624Z,3.70
2019-01-25T12:52:08.282Z,3.62
2019-01-25T12:53:06.587Z,3.70
2019-01-25T12:54:06.573Z,3.60
2019-01-25T12:55:06.545Z,3.50
2019-01-25T12:56:06.540Z,3.52
2019-01-25T12:57:06.493Z,3.58
2019-01-25T12:58:06.473Z,3.72
2019-01-25T12:59:06.448Z,3.75
2019-01-25T13:00:06.428Z,3.87
2019-01-25T13:01:06.404Z,3.86
2019-01-25T13:02:06.399Z,3.96